createdAt,value
2018-02-03T00:00:50.662Z,89.80
2018-02-03T00:03:18.250Z,89.70
2018-02-03T00:05:46.829Z,89.20
2018-02-03T00:08:14.392Z,89.10
2018-02-03T00:10:42.013Z,89.20
2018-02-03T00:13:09.682Z,89.10
2018-02-03T00:15:37.249Z,89.10
2018-02-03T00:18:05.053Z,89.50
2018-02-03T00:20:32.592Z,88.90
2018-02-03T00:23:00.142Z,88.90
2018-02-03T00:25:27.729Z,89.10
2018-02-03T00:27:55.321Z,89.00
2018-02-03T00:30:22.871Z,88.90
2018-02-03T00:32:50.558Z,89.60
2018-02-03T00:35:18.873Z,89.10
2018-02-03T00:37:46.457Z,88.90
2018-02-03T00:40:14.013Z,89.50
2018-02-03T00:42:41.616Z,89.40
2018-02-03T00:45:09.966Z,89.10
2018-02-03T00:47:37.577Z,88.90
2018-02-03T00:50:05.129Z,89.00
2018-02-03T00:52:33.468Z,88.70
2018-02-03T00:55:01.057Z,88.70
2018-02-03T00:57:28.610Z,88.80
2018-02-03T00:59:56.174Z,88.80
2018-02-03T01:02:23.827Z,89.00
2018-02-03T01:04:51.383Z,88.70
2018-02-03T01:07:18.985Z,88.80
2018-02-03T01:09:47.338Z,88.70
2018-02-03T01:12:14.905Z,88.60
2018-02-03T01:14:42.473Z,88.80
2018-02-03T01:17:10.929Z,89.20
2018-02-03T01:19:38.502Z,89.10
2018-02-03T01:22:06.833Z,89.70
2018-02-03T01:24:34.397Z,89.80
2018-02-03T01:27:01.969Z,89.50
2018-02-03T01:29:29.542Z,89.60
2018-02-03T01:31:57.092Z,89.40
2018-02-03T01:34:24.747Z,89.60
2018-02-03T01:36:52.299Z,89.60
2018-02-03T01:39:19.967Z,89.90
2018-02-03T01:41:47.641Z,90.10
2018-02-03T01:44:15.922Z,90.50
2018-02-03T01:46:43.485Z,90.10
2018-02-03T01:49:11.074Z,89.90
2018-02-03T01:51:38.637Z,89.60
2018-02-03T01:54:06.248Z,89.60
2018-02-03T01:56:33.815Z,89.40
2018-02-03T01:59:01.445Z,89.40
2018-02-03T02:01:29.009Z,89.60
2018-02-03T02:03:57.324Z,90.00
2018-02-03T02:06:24.885Z,90.00
2018-02-03T02:08:52.457Z,89.80
2018-02-03T02:11:20.925Z,88.70
2018-02-03T02:13:48.486Z,88.60
2018-02-03T02:16:16.173Z,88.70
2018-02-03T02:18:43.729Z,88.50
2018-02-03T02:21:11.292Z,88.00
2018-02-03T02:23:38.838Z,88.40
2018-02-03T02:26:06.398Z,87.60
2018-02-03T02:28:33.985Z,87.30
2018-02-03T02:31:01.545Z,87.60
2018-02-03T02:33:29.173Z,88.00
2018-02-03T02:35:56.745Z,88.10
2018-02-03T02:38:24.293Z,88.10
2018-02-03T02:40:51.844Z,88.20
2018-02-03T02:43:20.160Z,88.00
2018-02-03T02:45:47.749Z,88.00
2018-02-03T02:48:15.350Z,88.30
2018-02-03T02:50:43.035Z,88.60
2018-02-03T02:53:10.601Z,88.50
2018-02-03T02:55:38.259Z,88.90
2018-02-03T02:58:05.857Z,89.00
2018-02-03T03:00:33.396Z,88.80
2018-02-03T03:03:00.946Z,88.80
2018-02-03T03:05:28.489Z,89.10
2018-02-03T03:07:56.030Z,88.80
2018-02-03T03:10:24.373Z,89.30
2018-02-03T03:12:51.997Z,89.30
2018-02-03T03:15:19.573Z,89.50
2018-02-03T03:17:47.144Z,89.50
2018-02-03T03:20:14.697Z,89.30
2018-02-03T03:22:42.432Z,89.40
2018-02-03T03:25:12.689Z,89.30
2018-02-03T03:27:40.226Z,89.30
2018-02-03T03:30:07.799Z,89.70
2018-02-03T03:32:35.358Z,89.90
2018-02-03T03:35:02.912Z,89.90
2018-02-03T03:37:30.472Z,89.90
2018-02-03T03:39:58.053Z,89.80
2018-02-03T03:42:26.604Z,90.00
2018-02-03T03:44:54.917Z,90.10
2018-02-03T03:47:22.485Z,90.10
2018-02-03T03:49:50.049Z,90.20
2018-02-03T03:52:17.654Z,90.30
2018-02-03T03:54:45.748Z,90.20
2018-02-03T03:57:14.090Z,90.00
2018-02-03T03:59:41.652Z,90.00
2018-02-03T04:02:09.217Z,90.10
2018-02-03T04:04:36.769Z,90.00
2018-02-03T04:07:04.336Z,89.90
2018-02-03T04:09:31.886Z,89.50
2018-02-03T04:11:59.434Z,89.80
2018-02-03T04:14:26.977Z,89.90
2018-02-03T04:16:54.581Z,89.50
2018-02-03T04:19:22.146Z,89.80
2018-02-03T04:21:49.705Z,90.10
2018-02-03T04:24:17.372Z,90.10
2018-02-03T04:26:44.941Z,89.80
2018-02-03T04:29:13.377Z,89.50
2018-02-03T04:31:40.949Z,89.40
2018-02-03T04:34:08.500Z,90.00
2018-02-03T04:36:36.092Z,89.90
2018-02-03T04:39:03.721Z,89.80
2018-02-03T04:41:31.268Z,90.00
2018-02-03T04:43:58.830Z,90.10
2018-02-03T04:46:26.381Z,90.30
2018-02-03T04:48:53.951Z,90.10
2018-02-03T04:51:21.509Z,90.20
2018-02-03T04:53:49.058Z,90.30
2018-02-03T04:56:17.413Z,90.50
2018-02-03T04:58:44.973Z,90.50
2018-02-03T05:01:13.281Z,90.60
2018-02-03T05:03:40.865Z,90.60
2018-02-03T05:06:08.430Z,90.80
2018-02-03T05:08:36.106Z,90.70
2018-02-03T05:11:03.660Z,90.70
2018-02-03T05:13:31.243Z,90.70
2018-02-03T05:15:58.796Z,90.60
2018-02-03T05:18:26.358Z,90.40
2018-02-03T05:20:53.912Z,90.60
2018-02-03T05:23:21.461Z,90.60
2018-02-03T05:25:49.017Z,90.60
2018-02-03T05:28:16.733Z,90.60
2018-02-03T05:30:45.082Z,90.60
2018-02-03T05:33:12.681Z,90.60
2018-02-03T05:35:40.291Z,90.50
2018-02-03T05:38:07.866Z,90.50
2018-02-03T05:40:35.441Z,90.80
2018-02-03T05:43:03.001Z,90.80
2018-02-03T05:45:32.288Z,90.90
2018-02-03T05:48:00.756Z,90.80
2018-02-03T05:50:28.361Z,90.80
2018-02-03T05:52:55.909Z,90.80
2018-02-03T05:55:23.477Z,90.80
2018-02-03T05:57:51.026Z,90.60
2018-02-03T06:00:18.607Z,90.70
2018-02-03T06:02:46.164Z,90.90
2018-02-03T06:05:13.754Z,90.90
2018-02-03T06:07:42.139Z,91.20
2018-02-03T06:10:10.442Z,91.50
2018-02-03T06:12:37.997Z,91.50
2018-02-03T06:15:05.544Z,91.40
2018-02-03T06:17:33.113Z,91.20
2018-02-03T06:20:00.680Z,91.30
2018-02-03T06:22:28.409Z,91.30
2018-02-03T06:24:55.974Z,91.40
2018-02-03T06:27:23.520Z,91.40
2018-02-03T06:29:51.078Z,91.30
2018-02-03T06:32:18.641Z,91.40
2018-02-03T06:34:46.249Z,91.30
2018-02-03T06:37:13.797Z,91.30
2018-02-03T06:39:42.133Z,91.20
2018-02-03T06:42:09.672Z,91.20
2018-02-03T06:44:37.401Z,91.40
2018-02-03T06:47:05.733Z,91.50
2018-02-03T06:49:33.320Z,91.50
2018-02-03T06:52:00.889Z,91.50
2018-02-03T06:54:29.212Z,91.50
2018-02-03T06:56:56.945Z,91.40
2018-02-03T06:59:25.248Z,91.10
2018-02-03T07:01:52.809Z,91.10
2018-02-03T07:04:20.394Z,91.20
2018-02-03T07:06:47.956Z,91.20
2018-02-03T07:09:15.597Z,91.40
2018-02-03T07:11:43.157Z,91.30
2018-02-03T07:14:10.717Z,91.50
2018-02-03T07:16:38.306Z,91.30
2018-02-03T07:19:05.851Z,91.10
2018-02-03T07:21:33.438Z,91.20
2018-02-03T07:24:00.990Z,91.30
2018-02-03T07:26:28.524Z,91.30
2018-02-03T07:28:56.077Z,91.20
2018-02-03T07:31:23.629Z,91.00
2018-02-03T07:33:51.981Z,91.10
2018-02-03T07:36:19.599Z,91.10
2018-02-03T07:38:47.225Z,91.10
2018-02-03T07:41:15.545Z,90.90
2018-02-03T07:43:43.113Z,90.90
2018-02-03T07:46:10.681Z,90.80
2018-02-03T07:48:38.265Z,90.60
2018-02-03T07:51:05.817Z,90.50
2018-02-03T07:53:33.353Z,90.40
2018-02-03T07:56:00.942Z,90.50
2018-02-03T07:58:28.640Z,90.30
2018-02-03T08:00:56.934Z,90.30
2018-02-03T08:03:24.497Z,90.30
2018-02-03T08:05:52.058Z,90.00
2018-02-03T08:08:19.622Z,89.40
2018-02-03T08:10:47.348Z,89.10
2018-02-03T08:13:14.897Z,88.30
2018-02-03T08:15:43.240Z,87.90
2018-02-03T08:18:10.801Z,87.60
2018-02-03T08:20:38.353Z,87.50
2018-02-03T08:23:05.939Z,86.70
2018-02-03T08:25:33.513Z,85.50
2018-02-03T08:28:01.061Z,85.00
2018-02-03T08:30:28.638Z,84.60
2018-02-03T08:32:56.198Z,84.40
2018-02-03T08:35:23.766Z,84.50
2018-02-03T08:37:51.328Z,85.40
2018-02-03T08:40:19.074Z,85.30
2018-02-03T08:42:46.633Z,83.90
2018-02-03T08:45:14.198Z,83.70
2018-02-03T08:47:41.741Z,83.30
2018-02-03T08:50:09.289Z,83.80
2018-02-03T08:52:37.070Z,83.70
2018-02-03T08:55:04.629Z,83.50
2018-02-03T08:57:32.318Z,83.60
2018-02-03T08:59:59.897Z,83.20
2018-02-03T09:02:27.470Z,83.50
2018-02-03T09:04:55.066Z,83.00
2018-02-03T09:07:22.623Z,82.60
2018-02-03T09:09:50.205Z,83.10
2018-02-03T09:12:17.893Z,81.70
2018-02-03T09:14:45.500Z,82.10
2018-02-03T09:17:13.865Z,81.60
2018-02-03T09:19:41.431Z,81.60
2018-02-03T09:22:09.227Z,80.90
2018-02-03T09:24:36.838Z,81.10
2018-02-03T09:27:04.443Z,81.00
2018-02-03T09:29:32.012Z,81.60
2018-02-03T09:31:59.585Z,80.40
2018-02-03T09:34:27.145Z,78.50
2018-02-03T09:36:54.778Z,78.00
2018-02-03T09:39:23.118Z,76.70
2018-02-03T09:41:50.695Z,76.70
2018-02-03T09:44:18.233Z,77.60
2018-02-03T09:46:45.812Z,77.80
2018-02-03T09:49:13.382Z,76.70
2018-02-03T09:51:41.701Z,76.00
2018-02-03T09:54:09.269Z,75.90
2018-02-03T09:56:36.824Z,76.00
2018-02-03T09:59:04.385Z,77.00
2018-02-03T10:01:32.000Z,77.70
2018-02-03T10:03:59.569Z,75.90
2018-02-03T10:06:27.129Z,75.30
2018-02-03T10:08:54.726Z,73.80
2018-02-03T10:11:22.284Z,74.00
2018-02-03T10:13:49.831Z,75.20
2018-02-03T10:16:18.200Z,71.60
2018-02-03T10:18:45.801Z,71.60
2018-02-03T10:21:13.407Z,72.70
2018-02-03T10:23:40.936Z,72.60
2018-02-03T10:26:08.550Z,74.10
2018-02-03T10:28:36.120Z,72.20
2018-02-03T10:31:04.469Z,62.50
2018-02-03T10:33:33.045Z,57.90
2018-02-03T10:36:04.038Z,57.90
2018-02-03T10:38:32.493Z,57.60
2018-02-03T10:41:00.057Z,57.60
2018-02-03T10:43:27.633Z,58.80
2018-02-03T10:45:55.991Z,60.40
2018-02-03T10:48:23.566Z,60.40
2018-02-03T10:50:58.333Z,60.90
2018-02-03T10:53:25.905Z,60.90
2018-02-03T10:55:54.342Z,59.80
2018-02-03T10:58:21.884Z,61.10
2018-02-03T11:00:49.510Z,61.90
2018-02-03T11:03:17.099Z,64.10
2018-02-03T11:05:44.710Z,64.80
2018-02-03T11:08:12.281Z,64.20
2018-02-03T11:10:39.923Z,63.80
2018-02-03T11:13:08.344Z,66.20
2018-02-03T11:15:35.892Z,66.20
2018-02-03T11:18:03.506Z,66.70
2018-02-03T11:20:31.832Z,66.60
2018-02-03T11:22:59.456Z,66.60
2018-02-03T11:25:27.048Z,68.70
2018-02-03T11:27:55.360Z,70.90
2018-02-03T11:30:22.901Z,70.90
2018-02-03T11:32:50.557Z,72.20
2018-02-03T11:35:18.149Z,72.50
2018-02-03T11:37:45.718Z,72.30
2018-02-03T11:40:13.412Z,72.40
2018-02-03T11:42:41.840Z,74.00
2018-02-03T11:45:09.391Z,73.20
2018-02-03T11:47:36.956Z,75.20
2018-02-03T11:50:04.606Z,76.10
2018-02-03T11:52:32.176Z,75.90
2018-02-03T11:54:59.911Z,75.40
2018-02-03T11:57:28.256Z,74.40
2018-02-03T11:59:56.727Z,74.50
2018-02-03T12:02:24.414Z,74.30
2018-02-03T12:04:51.988Z,73.50
2018-02-03T12:07:19.563Z,70.80
2018-02-03T12:09:47.907Z,71.90
2018-02-03T12:12:15.456Z,71.00
2018-02-03T12:14:43.009Z,69.70
2018-02-03T12:17:10.561Z,70.70
2018-02-03T12:19:38.505Z,67.40
2018-02-03T12:22:06.049Z,66.10
2018-02-03T12:24:33.613Z,65.40
2018-02-03T12:27:02.102Z,63.70
2018-02-03T12:29:29.819Z,61.30
2018-02-03T12:31:57.376Z,62.20
2018-02-03T12:34:25.122Z,66.10
2018-02-03T12:36:52.721Z,67.70
2018-02-03T12:39:20.309Z,65.00
2018-02-03T12:41:47.873Z,65.30
2018-02-03T12:44:16.227Z,61.60
2018-02-03T12:46:43.774Z,61.60
2018-02-03T12:49:11.330Z,58.70
2018-02-03T12:51:38.913Z,58.90
2018-02-03T12:54:06.482Z,61.90
2018-02-03T12:56:34.218Z,64.10
2018-02-03T12:59:01.905Z,65.60
2018-02-03T13:01:29.467Z,66.90
2018-02-03T13:03:57.021Z,69.30
2018-02-03T13:06:24.630Z,71.50
2018-02-03T13:08:52.973Z,72.40
2018-02-03T13:11:20.609Z,72.20
2018-02-03T13:13:48.174Z,71.80
2018-02-03T13:16:15.765Z,70.90
2018-02-03T13:18:43.353Z,70.70
2018-02-03T13:21:10.917Z,71.00
2018-02-03T13:23:39.286Z,67.70
2018-02-03T13:26:06.860Z,67.70
2018-02-03T13:28:34.404Z,69.80
2018-02-03T13:31:01.970Z,70.80
2018-02-03T13:33:30.282Z,70.80
2018-02-03T13:35:57.909Z,70.80
2018-02-03T13:38:26.350Z,71.10
2018-02-03T13:40:53.908Z,71.10
2018-02-03T13:43:21.457Z,71.60
2018-02-03T13:45:49.030Z,72.40
2018-02-03T13:48:16.585Z,73.30
2018-02-03T13:50:44.191Z,72.30
2018-02-03T13:53:11.823Z,72.50
2018-02-03T13:55:39.389Z,74.60
2018-02-03T13:58:06.967Z,75.10
2018-02-03T14:00:34.532Z,74.10
2018-02-03T14:03:02.077Z,74.10
2018-02-03T14:05:30.881Z,74.40
2018-02-03T14:07:58.425Z,74.30
2018-02-03T14:10:26.019Z,76.10
2018-02-03T14:12:53.602Z,76.40
2018-02-03T14:15:21.929Z,76.20
2018-02-03T14:17:50.232Z,76.10
2018-02-03T14:20:17.789Z,77.60
2018-02-03T14:22:45.735Z,79.60
2018-02-03T14:25:14.107Z,78.20
2018-02-03T14:27:41.680Z,77.70
2018-02-03T14:30:09.441Z,78.30
2018-02-03T14:32:37.070Z,78.50
2018-02-03T14:35:05.381Z,77.90
2018-02-03T14:37:32.961Z,77.80
2018-02-03T14:40:00.523Z,77.50
2018-02-03T14:42:28.077Z,76.90
2018-02-03T14:44:55.676Z,76.10
2018-02-03T14:47:23.239Z,76.70
2018-02-03T14:49:50.793Z,76.40
2018-02-03T14:52:18.359Z,76.00
2018-02-03T14:54:45.929Z,75.10
2018-02-03T14:57:13.487Z,74.80
2018-02-03T14:59:41.145Z,73.70
2018-02-03T15:02:08.712Z,74.80
2018-02-03T15:04:37.062Z,74.00
2018-02-03T15:07:04.627Z,74.00
2018-02-03T15:09:32.198Z,74.00
2018-02-03T15:11:59.846Z,74.20
2018-02-03T15:14:27.405Z,73.30
2018-02-03T15:16:54.990Z,74.40
2018-02-03T15:19:22.659Z,75.30
2018-02-03T15:21:50.218Z,74.80
2018-02-03T15:24:17.773Z,75.00
2018-02-03T15:26:45.510Z,76.40
2018-02-03T15:29:13.072Z,76.60
2018-02-03T15:31:40.646Z,76.10
2018-02-03T15:34:08.224Z,75.60
2018-02-03T15:36:35.760Z,76.70
2018-02-03T15:39:03.319Z,76.10
2018-02-03T15:41:30.893Z,77.00
2018-02-03T15:43:59.270Z,77.90
2018-02-03T15:46:26.833Z,77.90
2018-02-03T15:48:54.401Z,77.80
2018-02-03T15:51:21.949Z,78.20
2018-02-03T15:53:49.614Z,78.70
2018-02-03T15:56:17.188Z,79.30
2018-02-03T15:58:44.901Z,79.60
2018-02-03T16:01:13.264Z,81.40
2018-02-03T16:03:40.838Z,81.40
2018-02-03T16:06:09.166Z,82.70
2018-02-03T16:08:36.930Z,82.60
2018-02-03T16:11:04.512Z,82.50
2018-02-03T16:13:32.162Z,82.50
2018-02-03T16:15:59.735Z,82.40
2018-02-03T16:18:27.328Z,82.50
2018-02-03T16:20:55.881Z,83.30
2018-02-03T16:23:23.480Z,83.30
2018-02-03T16:25:53.628Z,83.60
2018-02-03T16:28:21.989Z,83.30
2018-02-03T16:30:50.315Z,83.50
2018-02-03T16:33:17.897Z,84.20
2018-02-03T16:35:45.468Z,84.20
2018-02-03T16:38:13.165Z,84.30
2018-02-03T16:40:40.781Z,83.70
2018-02-03T16:43:08.315Z,83.90
2018-02-03T16:45:35.870Z,84.10
2018-02-03T16:48:03.466Z,83.70
2018-02-03T16:50:31.366Z,83.60
2018-02-03T16:53:00.264Z,84.10
2018-02-03T16:55:27.881Z,84.50
2018-02-03T16:57:55.659Z,84.40
2018-02-03T17:00:23.613Z,84.80
2018-02-03T17:02:51.377Z,85.00
2018-02-03T17:05:18.941Z,84.50
2018-02-03T17:07:46.510Z,84.10
2018-02-03T17:10:14.118Z,83.80
2018-02-03T17:12:41.690Z,83.80
2018-02-03T17:15:09.267Z,83.80
2018-02-03T17:17:36.913Z,84.40
2018-02-03T17:20:04.653Z,84.50
2018-02-03T17:22:32.462Z,84.20
2018-02-03T17:25:00.134Z,83.30
2018-02-03T17:27:27.868Z,84.40
2018-02-03T17:29:55.518Z,84.50
2018-02-03T17:32:23.857Z,84.60
2018-02-03T17:34:51.410Z,84.50
2018-02-03T17:37:24.654Z,84.80
2018-02-03T17:39:52.978Z,86.10
2018-02-03T17:42:20.794Z,86.10
2018-02-03T17:44:49.262Z,86.50
2018-02-03T17:47:16.974Z,86.50
2018-02-03T17:49:44.612Z,86.40
2018-02-03T17:52:13.098Z,87.00
2018-02-03T17:54:41.480Z,87.30
2018-02-03T17:57:15.622Z,87.60
2018-02-03T17:59:43.249Z,87.60
2018-02-03T18:02:11.029Z,88.60
2018-02-03T18:04:38.637Z,89.30
2018-02-03T18:07:06.318Z,89.40
2018-02-03T18:09:34.190Z,88.80
2018-02-03T18:12:01.778Z,88.40
2018-02-03T18:14:30.352Z,88.20
2018-02-03T18:16:58.845Z,87.90
2018-02-03T18:19:26.524Z,87.90
2018-02-03T18:21:54.329Z,88.80
2018-02-03T18:24:21.909Z,89.00
2018-02-03T18:26:49.789Z,89.00
2018-02-03T18:29:17.456Z,89.00
2018-02-03T18:31:45.140Z,89.60
2018-02-03T18:34:12.978Z,89.20
2018-02-03T18:36:40.600Z,90.00
2018-02-03T18:39:08.337Z,90.30
2018-02-03T18:41:36.117Z,89.90
2018-02-03T18:44:03.883Z,89.60
2018-02-03T18:46:31.610Z,89.50
2018-02-03T18:48:59.224Z,89.30
2018-02-03T18:51:26.985Z,89.70
2018-02-03T18:53:54.774Z,89.70
2018-02-03T18:56:22.560Z,90.00
2018-02-03T18:58:51.667Z,90.10
2018-02-03T19:01:19.288Z,90.00
2018-02-03T19:03:47.041Z,90.00
2018-02-03T19:06:15.868Z,89.80
2018-02-03T19:08:43.771Z,89.80
2018-02-03T19:11:12.180Z,90.00
2018-02-03T19:13:39.933Z,89.90
2018-02-03T19:16:08.380Z,90.40
2018-02-03T19:18:35.986Z,90.40
2018-02-03T19:21:04.401Z,90.60
2018-02-03T19:23:32.076Z,90.60
2018-02-03T19:25:59.669Z,90.70
2018-02-03T19:28:27.257Z,91.00
2018-02-03T19:30:54.940Z,91.20
2018-02-03T19:33:22.635Z,90.80
2018-02-03T19:35:50.309Z,90.90
2018-02-03T19:38:18.982Z,90.80
2018-02-03T19:40:46.710Z,90.80
2018-02-03T19:43:14.309Z,91.10
2018-02-03T19:45:42.045Z,91.20
2018-02-03T19:48:09.853Z,91.10
2018-02-03T19:50:37.496Z,91.10
2018-02-03T19:53:05.092Z,91.20
2018-02-03T19:55:32.684Z,91.10
2018-02-03T19:58:00.273Z,90.90
2018-02-03T20:00:27.871Z,91.10
2018-02-03T20:02:55.455Z,91.10
2018-02-03T20:05:23.768Z,91.10
2018-02-03T20:07:51.341Z,91.10
2018-02-03T20:10:18.909Z,90.90
2018-02-03T20:12:46.468Z,91.00
2018-02-03T20:15:14.163Z,91.10
2018-02-03T20:17:42.372Z,90.90
2018-02-03T20:20:09.984Z,90.80
2018-02-03T20:22:37.555Z,90.90
2018-02-03T20:25:05.139Z,90.70
2018-02-03T20:27:33.471Z,90.70
2018-02-03T20:30:01.167Z,90.70
2018-02-03T20:32:28.717Z,90.60
2018-02-03T20:34:56.304Z,90.60
2018-02-03T20:37:23.926Z,90.70
2018-02-03T20:39:51.555Z,90.80
2018-02-03T20:42:20.453Z,90.70
2018-02-03T20:44:48.233Z,90.70
2018-02-03T20:47:15.801Z,90.60
2018-02-03T20:49:43.407Z,90.80
2018-02-03T20:52:11.313Z,90.80
2018-02-03T20:54:38.918Z,90.70
2018-02-03T20:57:06.619Z,90.80
2018-02-03T20:59:34.958Z,91.00
2018-02-03T21:02:02.541Z,90.90
2018-02-03T21:04:30.907Z,91.20
2018-02-03T21:06:58.482Z,91.10
2018-02-03T21:09:26.865Z,91.40
2018-02-03T21:11:54.436Z,91.40
2018-02-03T21:14:22.853Z,91.40
2018-02-03T21:16:50.637Z,91.40
2018-02-03T21:19:18.157Z,91.40
2018-02-03T21:21:46.514Z,91.60
2018-02-03T21:24:14.833Z,91.60
2018-02-03T21:26:42.386Z,91.60
2018-02-03T21:29:09.942Z,91.40
2018-02-03T21:31:38.282Z,91.60
2018-02-03T21:34:05.833Z,91.60
2018-02-03T21:36:33.503Z,91.60
2018-02-03T21:39:01.078Z,91.60
2018-02-03T21:41:28.643Z,91.70
2018-02-03T21:43:56.193Z,91.70
2018-02-03T21:46:23.782Z,91.70
2018-02-03T21:48:52.151Z,91.40
2018-02-03T21:51:19.713Z,91.40
2018-02-03T21:53:47.278Z,91.40
2018-02-03T21:56:15.646Z,91.40
2018-02-03T21:58:43.213Z,91.40
2018-02-03T22:01:10.793Z,91.50
2018-02-03T22:03:39.133Z,91.50
2018-02-03T22:06:06.854Z,91.50
2018-02-03T22:08:34.634Z,91.50
2018-02-03T22:11:02.214Z,91.50
2018-02-03T22:13:29.755Z,91.50
2018-02-03T22:15:57.331Z,91.60
2018-02-03T22:18:26.043Z,91.60
2018-02-03T22:20:53.797Z,91.80
2018-02-03T22:23:21.426Z,91.90
2018-02-03T22:25:49.109Z,91.80
2018-02-03T22:28:17.077Z,91.80
2018-02-03T22:30:44.657Z,91.50
2018-02-03T22:33:12.385Z,91.70
2018-02-03T22:35:40.129Z,91.50
2018-02-03T22:38:09.034Z,91.40
2018-02-03T22:40:36.733Z,91.40
2018-02-03T22:43:04.872Z,91.40
2018-02-03T22:45:32.694Z,91.40
2018-02-03T22:48:00.278Z,91.10
2018-02-03T22:50:27.938Z,90.90
2018-02-03T22:52:55.579Z,90.90
2018-02-03T22:55:23.692Z,90.80
2018-02-03T22:57:52.193Z,91.10
2018-02-03T23:00:30.005Z,90.80
2018-02-03T23:02:59.500Z,90.80
2018-02-03T23:05:27.078Z,90.50
2018-02-03T23:07:54.658Z,90.60
2018-02-03T23:10:22.251Z,90.80
2018-02-03T23:12:49.851Z,90.90
2018-02-03T23:15:17.421Z,90.90
2018-02-03T23:17:45.034Z,90.80
2018-02-03T23:20:12.596Z,90.80
2018-02-03T23:22:40.923Z,90.60
2018-02-03T23:25:08.478Z,90.60
2018-02-03T23:27:36.055Z,90.60
2018-02-03T23:30:03.654Z,90.60
2018-02-03T23:32:31.297Z,90.90
2018-02-03T23:34:58.922Z,91.00
2018-02-03T23:37:27.284Z,91.00
2018-02-03T23:39:54.865Z,90.90
2018-02-03T23:42:22.466Z,90.80
2018-02-03T23:44:50.011Z,90.80
2018-02-03T23:47:17.549Z,91.00
2018-02-03T23:49:45.310Z,90.90
2018-02-03T23:52:13.654Z,91.00
2018-02-03T23:54:41.224Z,91.00
2018-02-03T23:57:08.857Z,91.10
2018-02-03T23:59:36.432Z,91.00
